»·PEaware :: N105MS KSBA-KSBA

N105MS :: KSBA-KSBA

FLIGHT INFORMATION

Flight Status: Arrived
Operator: Privately registered:
United States
More flights under this callsign
Pilot: Mike T. (22952)
Aircraft: CESSNA 172 SKYHAWK
(C172)
More flights by this aircraft type
Origin: KSBA Santa Barbara Mun
United States
Destination: KSBA Santa Barbara Mun
United States
More flights between these airports :: More routes between these airports
Route: +
File this flight plan on PilotEdge
Remarks:
Altitude:
(Current/Filed)
0ft
Speed:
(Current/Filed)
0kts
Departed: 27-Dec-19 10:56 AM
Arrived: 27-Dec-19 11:39 AM
Distance/Time
Traveled:
0nm/0:42
Distance/Time
To Go:
Arrived

Flight Plot

Page will automatically refresh every two minutes.


Map Options




Map Legend


Flown Route
Filed Route
Departure Airport
Arrival Airport
Navaid (VOR, NDB)
Fix

Horizontal Profiles

Position Reports

Time Latitude Longitude Heading Altitude Ground
Speed
27-Dec-19 10:47 34.431968 -119.834177 344 16ft 0kts
27-Dec-19 10:48 34.431968 -119.834177 344 16ft 0kts
27-Dec-19 10:49 34.431968 -119.834177 344 16ft 0kts
27-Dec-19 10:50 34.432272 -119.834424 281 16ft 3kts
27-Dec-19 10:51 34.431067 -119.835336 180 16ft 9kts
27-Dec-19 10:52 34.428788 -119.835039 158 15ft 0kts
27-Dec-19 10:53 34.428788 -119.835039 158 15ft 0kts
27-Dec-19 10:54 34.427938 -119.835997 267 15ft 21kts
27-Dec-19 10:55 34.427688 -119.859503 279 670ft 88kts
27-Dec-19 10:56 34.425094 -119.892924 273 1404ft 110kts
27-Dec-19 10:57 34.422621 -119.931737 284 1724ft 117kts
27-Dec-19 10:58 34.421555 -119.967338 270 2411ft 120kts
27-Dec-19 10:59 34.422967 -120.000714 285 2425ft 101kts
27-Dec-19 11:00 34.426137 -120.034517 251 2999ft 122kts
27-Dec-19 11:01 34.401494 -120.065374 230 3005ft 118kts
27-Dec-19 11:02 34.390540 -120.093508 325 3009ft 90kts
27-Dec-19 11:03 34.408521 -120.078331 56 3010ft 98kts
27-Dec-19 11:04 34.419421 -120.047970 68 3010ft 100kts
27-Dec-19 11:05 34.423360 -120.012463 80 2536ft 108kts
27-Dec-19 11:06 34.424542 -119.975599 82 1972ft 110kts
27-Dec-19 11:07 34.425457 -119.938277 82 1385ft 111kts
27-Dec-19 11:08 34.426351 -119.900768 82 787ft 105kts
27-Dec-19 11:09 34.427030 -119.872711 79 344ft 79kts
27-Dec-19 11:10 34.427559 -119.840341 83 348ft 117kts
27-Dec-19 11:11 34.417050 -119.814047 196 1500ft 108kts
27-Dec-19 11:12 34.387029 -119.828319 200 2231ft 117kts
27-Dec-19 11:13 34.352949 -119.838397 195 2656ft 128kts
27-Dec-19 11:14 34.319154 -119.850514 203 3156ft 126kts
27-Dec-19 11:15 34.287553 -119.865683 238 3642ft 116kts
27-Dec-19 11:16 34.275784 -119.900496 254 4004ft 115kts
27-Dec-19 11:17 34.264755 -119.936680 259 4007ft 105kts
27-Dec-19 11:18 34.264841 -119.970125 277 4009ft 99kts
27-Dec-19 11:19 34.265373 -120.005916 274 3638ft 114kts
27-Dec-19 11:20 34.265405 -120.041827 272 3645ft 90kts
27-Dec-19 11:21 34.263802 -120.075115 288 3552ft 101kts
27-Dec-19 11:22 34.289082 -120.081586 354 3611ft 97kts
27-Dec-19 11:23 34.316670 -120.079725 359 3658ft 96kts
27-Dec-19 11:24 34.343676 -120.080263 358 3697ft 100kts
27-Dec-19 11:25 34.371568 -120.080998 350 3697ft 100kts
27-Dec-19 11:26 34.399231 -120.085023 350 3697ft 100kts
27-Dec-19 11:28 34.423412 -120.075854 64 3554ft 96kts
27-Dec-19 11:29 34.422012 -120.043021 83 2670ft 94kts
27-Dec-19 11:30 34.422178 -120.011131 81 2254ft 95kts
27-Dec-19 11:31 34.422866 -119.978757 79 2069ft 97kts
27-Dec-19 11:32 34.424561 -119.943636 83 1427ft 115kts
27-Dec-19 11:33 34.425983 -119.909455 82 880ft 97kts
27-Dec-19 11:34 34.418314 -119.881456 101 793ft 79kts
27-Dec-19 11:35 34.415355 -119.853965 79 882ft 85kts
27-Dec-19 11:36 34.416482 -119.824840 87 1004ft 83kts
27-Dec-19 11:37 34.424935 -119.810986 321 793ft 63kts
27-Dec-19 11:38 34.427740 -119.831801 279 167ft 69kts
27-Dec-19 11:39 34.427935 -119.840980 237 14ft 9kts
27-Dec-19 11:40 34.429363 -119.842242 347 13ft 3kts
27-Dec-19 11:41 34.430825 -119.839462 65 14ft 13kts

Navigation Log

Ident Type
Flight plan parsing failed, navigation log unavailable